Time;durP1;ratioP1;P1;durP2;ratioP2;P2;SDS_P1;SDS_P2;PMS_P1;PMS_P2;Temp;Humidity;BMP_temperature;BMP_pressure;BME280_temperature;BME280_humidity;BME280_pressure;Samples;Min_cycle;Max_cycle;Signal;HPM_P1;HPM_P2
2022/05/29 00:00:46;;;;;;;1999.90;999.90;;;;;;;9.66;100.00;94982.75;5098639;28;20207;-60
2022/05/29 00:03:13;;;;;;;1999.90;999.90;;;;;;;9.60;100.00;94981.66;5097816;28;20215;-60
2022/05/29 00:05:39;;;;;;;1999.90;999.90;;;;;;;9.56;100.00;94981.69;5098116;28;20203;-60
2022/05/29 00:08:05;;;;;;;1999.90;999.90;;;;;;;9.59;100.00;94975.41;5116142;28;20180;-60
2022/05/29 00:10:35;;;;;;;1999.90;999.90;;;;;;;9.51;100.00;94973.94;5097984;28;20238;-60
2022/05/29 00:13:01;;;;;;;1999.90;999.90;;;;;;;9.37;100.00;94973.34;5098294;28;20195;-60
2022/05/29 00:15:26;;;;;;;1999.90;999.90;;;;;;;9.39;100.00;94966.31;5098236;28;20200;-61
2022/05/29 00:17:51;;;;;;;1999.90;999.90;;;;;;;9.34;100.00;94974.16;5097729;28;20208;-60
2022/05/29 00:20:17;;;;;;;1999.90;999.90;;;;;;;9.41;100.00;94963.97;5098400;28;20245;-58
2022/05/29 00:22:42;;;;;;;1999.90;999.90;;;;;;;9.37;100.00;94960.47;5097831;28;20176;-58
2022/05/29 00:25:10;;;;;;;1999.90;999.90;;;;;;;9.36;100.00;94950.75;5097758;28;20195;-59
2022/05/29 00:27:36;;;;;;;1999.90;999.90;;;;;;;9.39;100.00;94960.84;5097914;28;20239;-59
2022/05/29 00:30:04;;;;;;;1999.90;999.90;;;;;;;9.32;100.00;94947.31;5097861;28;20187;-59
2022/05/29 00:32:29;;;;;;;1999.90;999.90;;;;;;;9.30;100.00;94941.50;5097618;28;20241;-58
2022/05/29 00:34:54;;;;;;;1999.90;999.90;;;;;;;9.28;100.00;94937.63;5097486;28;20215;-59
2022/05/29 00:37:20;;;;;;;1999.90;999.90;;;;;;;9.14;100.00;94932.34;5098095;28;20237;-59
2022/05/29 00:39:49;;;;;;;1999.90;999.90;;;;;;;9.07;100.00;94925.00;5097379;28;20196;-60
2022/05/29 00:42:16;;;;;;;1999.90;999.90;;;;;;;9.05;100.00;94929.31;5097443;28;20179;-59
2022/05/29 00:44:42;;;;;;;1999.90;999.90;;;;;;;9.04;100.00;94928.53;5097339;28;20226;-59
2022/05/29 00:47:13;;;;;;;1999.90;999.90;;;;;;;8.85;100.00;94926.38;5097384;28;20274;-59
2022/05/29 00:49:40;;;;;;;1999.90;999.90;;;;;;;8.83;100.00;94917.84;5097420;28;20187;-63
2022/05/29 00:52:12;;;;;;;1999.90;999.90;;;;;;;8.80;100.00;94924.09;5097407;28;20186;-59
2022/05/29 00:54:55;;;;;;;1999.90;999.90;;;;;;;8.74;100.00;94914.81;5097701;28;20206;-60
2022/05/29 00:57:46;;;;;;;1999.90;999.90;;;;;;;8.72;100.00;94919.91;5098012;28;20195;-60
2022/05/29 01:00:14;;;;;;;1999.90;999.90;;;;;;;8.64;100.00;94914.91;5096723;28;20264;-59
2022/05/29 01:02:40;;;;;;;1999.90;999.90;;;;;;;8.58;100.00;94903.69;5097067;28;20191;-59
2022/05/29 01:05:08;;;;;;;1999.90;999.90;;;;;;;8.58;100.00;94900.97;5096928;28;20282;-60
2022/05/29 01:07:35;;;;;;;1999.90;999.90;;;;;;;8.61;100.00;94894.72;5096668;28;20183;-59
2022/05/29 01:10:03;;;;;;;1999.90;999.90;;;;;;;8.59;100.00;94886.19;5097186;28;20179;-61
2022/05/29 01:12:45;;;;;;;1999.90;999.90;;;;;;;8.54;100.00;94889.34;5096921;28;20251;-60
2022/05/29 01:15:50;;;;;;;1999.90;999.90;;;;;;;8.60;100.00;94878.81;5097452;28;20228;-59
2022/05/29 01:18:39;;;;;;;1999.90;999.90;;;;;;;8.64;100.00;94868.66;5056521;28;20218;-58
2022/05/29 01:21:19;;;;;;;1999.90;999.90;;;;;;;8.65;100.00;94860.09;5096994;28;20248;-58
2022/05/29 01:24:13;;;;;;;1999.90;999.90;;;;;;;8.58;100.00;94856.66;5097200;28;20191;-59
2022/05/29 01:27:05;;;;;;;1999.90;999.90;;;;;;;8.52;100.00;94847.38;5097227;28;20195;-60
2022/05/29 01:29:58;;;;;;;1999.90;999.90;;;;;;;8.43;100.00;94838.91;5096848;28;20221;-57
2022/05/29 01:32:35;;;;;;;1999.90;999.90;;;;;;;8.46;100.00;94847.06;5097175;28;20191;-57
2022/05/29 01:35:10;;;;;;;1999.90;999.90;;;;;;;8.42;100.00;94846.28;5097009;28;20268;-57
2022/05/29 01:38:07;;;;;;;1999.90;999.90;;;;;;;8.39;100.00;94828.06;5096994;28;20201;-57
2022/05/29 01:40:46;;;;;;;1999.90;999.90;;;;;;;8.37;100.00;94835.84;5097129;28;20201;-57
2022/05/29 01:43:32;;;;;;;1999.90;999.90;;;;;;;8.30;100.00;94827.00;5097086;28;20215;-57
2022/05/29 01:46:06;;;;;;;1999.90;999.90;;;;;;;8.32;100.00;94833.56;5096982;28;20200;-57
2022/05/29 01:48:51;;;;;;;1999.90;999.90;;;;;;;8.30;100.00;94829.72;5096955;28;20195;-64
2022/05/29 01:51:21;;;;;;;1999.90;999.90;;;;;;;8.17;100.00;94820.47;5096614;28;20217;-64
2022/05/29 01:53:57;;;;;;;1999.90;999.90;;;;;;;8.10;100.00;94820.53;5096459;28;20232;-65
2022/05/29 01:56:27;;;;;;;1999.90;999.90;;;;;;;8.13;100.00;94817.00;5096575;28;20209;-65
2022/05/29 01:59:05;;;;;;;1999.90;999.90;;;;;;;8.12;100.00;94799.91;5096902;28;20186;-64
2022/05/29 02:01:36;;;;;;;1999.90;999.90;;;;;;;8.11;100.00;94794.88;5096529;28;20269;-64
2022/05/29 02:04:06;;;;;;;1999.90;999.90;;;;;;;8.11;100.00;94790.22;5096327;28;20193;-60
2022/05/29 02:09:23;;;;;;;1999.90;999.90;;;;;;;8.16;100.00;94776.16;5114930;28;20196;-57
2022/05/29 02:11:55;;;;;;;1999.90;999.90;;;;;;;8.08;100.00;94769.25;5096088;28;20190;-57
2022/05/29 02:14:27;;;;;;;1999.90;999.90;;;;;;;8.11;100.00;94765.75;5096137;28;20187;-58
2022/05/29 02:17:17;;;;;;;1999.90;999.90;;;;;;;8.06;100.00;94763.47;5097185;28;20291;-57
2022/05/29 02:19:56;;;;;;;1999.90;999.90;;;;;;;7.96;100.00;94758.09;5099646;28;20195;-57
2022/05/29 02:22:28;;;;;;;1999.90;999.90;;;;;;;7.93;100.00;94759.69;5099968;28;20255;-62
2022/05/29 02:25:10;;;;;;;1999.90;999.90;;;;;;;7.92;100.00;94760.88;5099734;28;20242;-60
2022/05/29 02:27:48;;;;;;;1999.90;999.90;;;;;;;7.89;100.00;94748.06;5099933;28;20229;-59
2022/05/29 02:30:14;;;;;;;1999.90;999.90;;;;;;;7.87;100.00;94747.69;5100229;28;20189;-60
2022/05/29 02:33:01;;;;;;;1999.90;999.90;;;;;;;7.90;100.00;94755.03;5099407;28;20185;-60
2022/05/29 02:35:29;;;;;;;1999.90;999.90;;;;;;;7.89;100.00;94745.34;5099946;28;20198;-59
2022/05/29 02:38:22;;;;;;;1999.90;999.90;;;;;;;7.91;100.00;94748.47;5099513;28;20194;-60
2022/05/29 02:41:07;;;;;;;1999.90;999.90;;;;;;;7.77;100.00;94759.44;5088736;28;20197;-61
2022/05/29 02:44:14;;;;;;;1999.90;999.90;;;;;;;7.64;100.00;94744.78;5099408;28;20203;-60
2022/05/29 02:47:04;;;;;;;1999.90;999.90;;;;;;;7.46;100.00;94744.13;5034922;28;20201;-61
2022/05/29 02:49:44;;;;;;;1999.90;999.90;;;;;;;7.39;100.00;94741.47;5099520;28;20194;-60
2022/05/29 02:52:14;;;;;;;1999.90;999.90;;;;;;;7.42;100.00;94742.59;5099727;28;20272;-60
2022/05/29 02:54:39;;;;;;;1999.90;999.90;;;;;;;7.38;100.00;94747.28;5099266;28;20264;-59
2022/05/29 02:57:05;;;;;;;1999.90;999.90;;;;;;;7.31;100.00;94736.47;5099239;28;20193;-58
2022/05/29 02:59:36;;;;;;;1999.90;999.90;;;;;;;7.31;100.00;94737.25;5099366;28;20233;-59
2022/05/29 03:02:26;;;;;;;1999.90;999.90;;;;;;;7.38;100.00;94734.50;5099158;28;20208;-60
2022/05/29 03:04:57;;;;;;;1999.90;999.90;;;;;;;7.38;100.00;94726.34;5099065;28;20211;-60
2022/05/29 03:07:42;;;;;;;1999.90;999.90;;;;;;;7.40;100.00;94718.59;5099281;28;20198;-59
2022/05/29 03:10:12;;;;;;;1999.90;999.90;;;;;;;7.38;100.00;94715.50;5099568;28;20213;-59
2022/05/29 03:12:44;;;;;;;1999.90;999.90;;;;;;;7.37;100.00;94707.72;5099445;28;20195;-59
2022/05/29 03:15:33;;;;;;;1999.90;999.90;;;;;;;7.34;100.00;94703.09;5098783;28;20229;-60
2022/05/29 03:18:10;;;;;;;1999.90;999.90;;;;;;;7.29;100.00;94696.16;5098961;28;20233;-59
2022/05/29 03:21:00;;;;;;;1999.90;999.90;;;;;;;7.32;100.00;94689.91;5098835;28;20182;-61
2022/05/29 03:23:26;;;;;;;1999.90;999.90;;;;;;;7.39;100.00;94698.00;5116759;28;20170;-61
2022/05/29 03:25:56;;;;;;;1999.90;999.90;;;;;;;7.39;100.00;94695.28;5098433;28;20382;-61
2022/05/29 03:28:31;;;;;;;1999.90;999.90;;;;;;;7.42;100.00;94699.16;5098105;28;20222;-60
2022/05/29 03:30:59;;;;;;;1999.90;999.90;;;;;;;7.41;100.00;94705.75;5098481;28;20272;-60
2022/05/29 03:33:26;;;;;;;1999.90;999.90;;;;;;;7.44;100.00;94711.19;5098982;28;20180;-60
2022/05/29 03:35:51;;;;;;;1999.90;999.90;;;;;;;7.57;100.00;94701.38;5098741;28;20197;-60
2022/05/29 03:38:17;;;;;;;1999.90;999.90;;;;;;;7.74;100.00;94705.88;5098537;28;20182;-60
2022/05/29 03:40:43;;;;;;;1999.90;999.90;;;;;;;7.89;100.00;94701.88;5098354;28;20278;-61
2022/05/29 03:43:08;;;;;;;1999.90;999.90;;;;;;;8.08;100.00;94698.56;5098706;28;20628;-62
2022/05/29 03:45:33;;;;;;;1999.90;999.90;;;;;;;8.15;100.00;94701.22;5098382;28;20247;-61
2022/05/29 03:47:59;;;;;;;1999.90;999.90;;;;;;;8.25;100.00;94700.38;5098461;28;20267;-62
2022/05/29 03:50:25;;;;;;;1999.90;999.90;;;;;;;8.40;100.00;94712.63;5098745;28;20178;-60
2022/05/29 03:52:51;;;;;;;1999.90;999.90;;;;;;;8.57;100.00;94713.59;5098872;28;20337;-60
2022/05/29 03:55:24;;;;;;;1999.90;999.90;;;;;;;8.66;100.00;94716.59;5098386;28;20209;-59
2022/05/29 03:57:50;;;;;;;1999.90;999.90;;;;;;;8.95;100.00;94712.34;5116303;28;20279;-61
2022/05/29 04:00:16;;;;;;;1999.90;999.90;;;;;;;9.27;100.00;94713.47;5098005;28;20187;-60
2022/05/29 04:02:42;;;;;;;1999.90;999.90;;;;;;;9.54;100.00;94711.50;5098570;28;20240;-60
2022/05/29 04:05:10;;;;;;;1999.90;999.90;;;;;;;10.01;100.00;94718.50;5098535;28;20290;-60
2022/05/29 04:13:03;;;;;;;1999.90;999.90;;;;;;;10.95;100.00;94708.94;5116147;28;20214;-58
2022/05/29 04:15:29;;;;;;;1999.90;999.90;;;;;;;11.15;100.00;94706.97;5098485;28;20187;-61
2022/05/29 04:17:54;;;;;;;1999.90;999.90;;;;;;;11.45;100.00;94703.97;5098018;28;20215;-60
2022/05/29 04:20:19;;;;;;;1999.90;999.90;;;;;;;11.60;100.00;94692.28;5098063;28;20186;-61
2022/05/29 04:22:45;;;;;;;1999.90;999.90;;;;;;;11.96;100.00;94705.88;5097883;28;20236;-63
2022/05/29 04:25:10;;;;;;;1999.90;999.90;;;;;;;12.51;100.00;94697.41;5097634;28;20199;-62
2022/05/29 04:27:36;;;;;;;1999.90;999.90;;;;;;;12.94;100.00;94697.78;5098245;28;20187;-60
2022/05/29 04:30:01;;;;;;;1999.90;999.90;;;;;;;12.99;100.00;94697.25;5097708;28;20190;-63
2022/05/29 04:35:11;;;;;;;1999.90;999.90;;;;;;;13.45;100.00;94701.38;5115976;28;20183;-59
2022/05/29 04:37:36;;;;;;;1999.90;999.90;;;;;;;13.64;100.00;94701.19;5097499;28;20183;-58
2022/05/29 04:40:02;;;;;;;1999.90;999.90;;;;;;;13.50;100.00;94689.84;5096844;28;20199;-59
2022/05/29 04:42:28;;;;;;;1999.90;999.90;;;;;;;14.13;100.00;94688.59;5097264;28;20178;-58
2022/05/29 04:44:53;;;;;;;1999.90;999.90;;;;;;;14.74;100.00;94694.34;5097868;28;20219;-59
2022/05/29 04:47:18;;;;;;;1999.90;999.90;;;;;;;15.16;98.64;94692.78;5098048;28;20184;-62
2022/05/29 04:49:44;;;;;;;1999.90;999.90;;;;;;;15.02;98.23;94703.56;5097595;28;20183;-59
2022/05/29 04:52:10;;;;;;;1999.90;999.90;;;;;;;15.12;98.51;94705.16;5097586;28;20194;-59
2022/05/29 04:54:40;;;;;;;1999.90;999.90;;;;;;;15.61;92.25;94706.84;5097321;28;20192;-61
2022/05/29 04:57:06;;;;;;;1999.90;999.90;;;;;;;15.56;91.02;94709.41;5097433;28;20195;-60
2022/05/29 04:59:32;;;;;;;1999.90;999.90;;;;;;;15.69;90.31;94713.59;5097196;28;20179;-61
2022/05/29 05:01:58;;;;;;;1999.90;999.90;;;;;;;15.95;89.50;94708.63;5097235;28;20184;-60
2022/05/29 05:04:24;;;;;;;1999.90;999.90;;;;;;;16.02;88.31;94706.38;5097408;28;20210;-60
2022/05/29 05:06:49;;;;;;;1999.90;999.90;;;;;;;16.36;85.96;94708.91;5096955;28;20196;-63
2022/05/29 05:09:14;;;;;;;1999.90;999.90;;;;;;;16.69;84.31;94705.59;5097571;28;20316;-65
2022/05/29 05:11:40;;;;;;;1999.90;999.90;;;;;;;17.11;83.14;94709.28;5097219;28;20211;-62
2022/05/29 05:14:05;;;;;;;1999.90;999.90;;;;;;;17.57;79.08;94708.75;5097390;28;20206;-64
2022/05/29 05:16:31;;;;;;;1999.90;999.90;;;;;;;17.19;80.07;94708.47;5096926;28;20218;-65
2022/05/29 05:18:56;;;;;;;1999.90;999.90;;;;;;;16.38;80.68;94714.75;5096966;28;20191;-64
2022/05/29 05:21:21;;;;;;;1999.90;999.90;;;;;;;15.11;88.04;94718.16;5097089;28;20183;-64
2022/05/29 05:23:47;;;;;;;1999.90;999.90;;;;;;;14.11;91.57;94726.72;5097198;28;20251;-66
2022/05/29 05:26:13;;;;;;;1999.90;999.90;;;;;;;14.10;96.16;94722.44;5096834;28;20211;-66
2022/05/29 05:28:39;;;;;;;1999.90;999.90;;;;;;;13.37;99.57;94730.25;5096823;28;20176;-59
2022/05/29 05:31:04;;;;;;;1999.90;999.90;;;;;;;13.42;100.00;94732.44;5096840;28;20194;-60
2022/05/29 05:33:30;;;;;;;1999.90;999.90;;;;;;;12.81;100.00;94727.09;5096679;28;20194;-59
2022/05/29 05:35:56;;;;;;;1999.90;999.90;;;;;;;12.46;100.00;94728.06;5096705;28;20207;-60
2022/05/29 05:38:21;;;;;;;1999.90;999.90;;;;;;;12.34;100.00;94732.28;5096687;28;20180;-58
2022/05/29 05:40:47;;;;;;;1999.90;999.90;;;;;;;12.64;100.00;94725.63;5096708;28;20184;-61
2022/05/29 05:43:12;;;;;;;1999.90;999.90;;;;;;;11.99;100.00;94726.94;5097368;28;20183;-61
2022/05/29 05:45:41;;;;;;;1999.90;999.90;;;;;;;11.87;100.00;94735.84;5096930;28;20252;-61
2022/05/29 05:48:07;;;;;;;1999.90;999.90;;;;;;;11.91;100.00;94725.56;5096283;28;20282;-60
2022/05/29 05:50:32;;;;;;;1999.90;999.90;;;;;;;12.34;100.00;94726.81;5096532;28;20387;-61
2022/05/29 05:52:58;;;;;;;1999.90;999.90;;;;;;;12.42;100.00;94721.94;5095758;28;20290;-61
2022/05/29 05:55:23;;;;;;;1999.90;999.90;;;;;;;12.58;100.00;94730.09;5096315;28;20191;-61
2022/05/29 05:57:48;;;;;;;1999.90;999.90;;;;;;;12.28;100.00;94727.75;5096084;28;20215;-62
2022/05/29 06:00:15;;;;;;;1999.90;999.90;;;;;;;12.14;100.00;94722.66;5096358;28;20260;-60
2022/05/29 06:02:42;;;;;;;1999.90;999.90;;;;;;;12.24;100.00;94721.59;5096296;28;20194;-59
2022/05/29 06:05:09;;;;;;;1999.90;999.90;;;;;;;12.01;100.00;94730.00;5096407;28;20255;-58
2022/05/29 06:07:35;;;;;;;1999.90;999.90;;;;;;;11.50;100.00;94728.03;5096132;28;20191;-58
2022/05/29 06:10:00;;;;;;;1999.90;999.90;;;;;;;11.79;100.00;94715.28;5114166;28;20239;-58
2022/05/29 06:12:25;;;;;;;1999.90;999.90;;;;;;;11.96;100.00;94722.31;5096309;28;20247;-58
2022/05/29 06:14:51;;;;;;;1999.90;999.90;;;;;;;12.16;100.00;94720.22;5096130;28;20203;-59
2022/05/29 06:17:16;;;;;;;1999.90;999.90;;;;;;;11.51;100.00;94715.94;5096563;28;20211;-58
2022/05/29 06:19:42;;;;;;;1999.90;999.90;;;;;;;11.60;100.00;94705.16;5096519;28;20182;-63
2022/05/29 06:22:07;;;;;;;1999.90;999.90;;;;;;;11.59;100.00;94709.09;5095984;28;20187;-60
2022/05/29 06:24:34;;;;;;;1999.90;999.90;;;;;;;12.21;100.00;94715.00;5095826;28;20263;-61
2022/05/29 06:26:59;;;;;;;1999.90;999.90;;;;;;;12.43;100.00;94715.25;5096451;28;20192;-61
2022/05/29 06:29:25;;;;;;;1999.90;999.90;;;;;;;12.75;100.00;94734.34;5095989;28;20179;-60
2022/05/29 06:31:53;;;;;;;1999.90;999.90;;;;;;;12.36;100.00;94729.13;5095767;28;20195;-61
2022/05/29 06:34:19;;;;;;;1999.90;999.90;;;;;;;12.28;100.00;94727.75;5095892;28;20182;-63
2022/05/29 06:36:44;;;;;;;1999.90;999.90;;;;;;;12.08;100.00;94727.09;5095716;28;20196;-61
2022/05/29 06:39:10;;;;;;;1999.90;999.90;;;;;;;12.42;100.00;94716.44;5095850;28;20211;-61
2022/05/29 06:41:39;;;;;;;1999.90;999.90;;;;;;;12.34;100.00;94726.03;5095769;28;20195;-62
2022/05/29 06:44:05;;;;;;;1999.90;999.90;;;;;;;12.23;100.00;94717.31;5095835;28;20284;-62
2022/05/29 06:46:30;;;;;;;1999.90;999.90;;;;;;;12.23;100.00;94714.56;5095738;28;20188;-62
2022/05/29 06:48:55;;;;;;;1999.90;999.90;;;;;;;12.34;100.00;94699.44;5096417;28;20179;-63
2022/05/29 06:51:23;;;;;;;1999.90;999.90;;;;;;;12.11;100.00;94696.13;5096607;28;20202;-62
2022/05/29 06:53:55;;;;;;;1999.90;999.90;;;;;;;12.71;100.00;94703.50;5096202;28;20225;-62
2022/05/29 06:56:21;;;;;;;1999.90;999.90;;;;;;;12.98;100.00;94702.00;5096000;28;20230;-59
2022/05/29 06:58:47;;;;;;;1999.90;999.90;;;;;;;13.75;100.00;94722.78;5095674;28;20179;-64
2022/05/29 07:06:59;;;;;;;1999.90;999.90;;;;;;;12.65;100.00;94725.19;5117057;28;20194;-63
2022/05/29 07:09:29;;;;;;;1999.90;999.90;;;;;;;13.40;100.00;94719.16;5099682;28;20193;-60
2022/05/29 07:12:05;;;;;;;1999.90;999.90;;;;;;;13.82;100.00;94712.38;5099323;28;20271;-62
2022/05/29 07:14:31;;;;;;;1999.90;999.90;;;;;;;13.83;100.00;94708.41;5099362;28;20187;-65
2022/05/29 07:16:56;;;;;;;1999.90;999.90;;;;;;;14.16;97.80;94722.66;5098758;28;20776;-58
2022/05/29 07:19:24;;;;;;;1999.90;999.90;;;;;;;13.96;99.82;94722.91;5098739;28;20191;-59
2022/05/29 07:21:54;;;;;;;1999.90;999.90;;;;;;;13.88;97.74;94727.06;5098854;28;20207;-61
2022/05/29 07:24:19;;;;;;;1999.90;999.90;;;;;;;13.52;100.00;94712.94;5098838;28;20172;-62
2022/05/29 07:26:44;;;;;;;1999.90;999.90;;;;;;;13.62;100.00;94709.06;5098824;28;20180;-62
2022/05/29 07:29:11;;;;;;;1999.90;999.90;;;;;;;13.32;100.00;94712.34;5098675;28;20259;-62
2022/05/29 07:31:37;;;;;;;1999.90;999.90;;;;;;;15.55;92.40;94725.16;5098614;28;20190;-60
2022/05/29 07:34:02;;;;;;;1999.90;999.90;;;;;;;15.80;86.86;94727.72;5098643;28;20175;-62
2022/05/29 07:36:28;;;;;;;1999.90;999.90;;;;;;;14.91;90.81;94714.97;5098714;28;20183;-60
2022/05/29 07:38:54;;;;;;;1999.90;999.90;;;;;;;14.44;93.27;94718.97;5098639;28;20259;-61
2022/05/29 07:44:03;;;;;;;1999.90;999.90;;;;;;;15.42;91.20;94727.25;5116947;28;20186;-60
2022/05/29 07:46:29;;;;;;;1999.90;999.90;;;;;;;15.57;89.13;94717.22;5098789;28;20180;-59
2022/05/29 07:48:54;;;;;;;1999.90;999.90;;;;;;;14.72;90.37;94715.25;5097735;28;20341;-60
2022/05/29 07:51:20;;;;;;;1999.90;999.90;;;;;;;14.59;92.02;94712.56;5098387;28;20270;-62
2022/05/29 07:53:45;;;;;;;1999.90;999.90;;;;;;;14.64;93.56;94717.47;5098424;28;20259;-65
2022/05/29 07:56:11;;;;;;;1999.90;999.90;;;;;;;16.47;87.40;94721.50;5098201;28;20172;-60
2022/05/29 07:58:40;;;;;;;1999.90;999.90;;;;;;;16.83;82.88;94729.81;5098506;28;20180;-59
2022/05/29 08:01:05;;;;;;;1999.90;999.90;;;;;;;16.28;80.90;94709.66;5098139;28;20176;-59
2022/05/29 08:03:32;;;;;;;1999.90;999.90;;;;;;;15.94;82.30;94727.16;5097718;28;20186;-60
2022/05/29 08:05:57;;;;;;;1999.90;999.90;;;;;;;16.16;83.45;94741.63;5116153;28;20191;-59
2022/05/29 08:08:23;;;;;;;1999.90;999.90;;;;;;;16.52;79.49;94740.19;5098357;28;20187;-59
2022/05/29 08:10:49;;;;;;;1999.90;999.90;;;;;;;16.48;79.13;94739.56;5098283;28;20202;-59
2022/05/29 08:13:15;;;;;;;1999.90;999.90;;;;;;;16.18;80.04;94719.88;5116036;28;20203;-59
2022/05/29 08:15:41;;;;;;;1999.90;999.90;;;;;;;15.81;80.39;94721.00;5097815;28;20183;-59
2022/05/29 08:18:09;;;;;;;1999.90;999.90;;;;;;;15.86;82.22;94734.19;5097453;28;20298;-58
2022/05/29 08:20:36;;;;;;;1999.90;999.90;;;;;;;17.41;75.98;94733.16;5097806;28;20271;-58
2022/05/29 08:23:02;;;;;;;1999.90;999.90;;;;;;;17.09;76.30;94731.03;5098106;28;20184;-60
2022/05/29 08:30:56;;;;;;;1999.90;999.90;;;;;;;17.26;74.95;94744.03;5116374;28;20223;-60
2022/05/29 08:33:23;;;;;;;1999.90;999.90;;;;;;;16.46;79.14;94744.78;5097640;28;20187;-59
2022/05/29 08:35:59;;;;;;;1999.90;999.90;;;;;;;16.51;79.65;94738.66;5097738;28;20191;-59
2022/05/29 08:38:25;;;;;;;1999.90;999.90;;;;;;;16.09;81.37;94721.84;5097996;28;20187;-59
2022/05/29 08:41:02;;;;;;;1999.90;999.90;;;;;;;16.20;82.23;94728.47;5097276;28;20180;-59
2022/05/29 08:43:38;;;;;;;1999.90;999.90;;;;;;;15.98;83.18;94736.06;5097980;28;20218;-60
2022/05/29 08:46:08;;;;;;;1999.90;999.90;;;;;;;16.00;83.56;94721.84;5097696;28;20207;-58
2022/05/29 08:48:35;;;;;;;1999.90;999.90;;;;;;;16.68;82.87;94726.13;5097309;28;20230;-59
2022/05/29 08:51:48;;;;;;;1999.90;999.90;;;;;;;17.79;77.70;94727.84;5097618;28;20180;-65
2022/05/29 08:54:28;;;;;;;1999.90;999.90;;;;;;;17.02;74.88;94725.84;5079702;28;20264;-64
2022/05/29 08:57:08;;;;;;;1999.90;999.90;;;;;;;16.66;79.39;94745.91;5097613;28;20215;-63
2022/05/29 08:59:33;;;;;;;1999.90;999.90;;;;;;;17.13;74.24;94745.44;5097496;28;20270;-63
2022/05/29 09:02:16;;;;;;;1999.90;999.90;;;;;;;16.72;72.72;94737.78;5097290;28;20230;-63
2022/05/29 09:04:50;;;;;;;1999.90;999.90;;;;;;;16.32;75.80;94727.56;5097481;28;20212;-58
2022/05/29 09:07:18;;;;;;;1999.90;999.90;;;;;;;15.91;75.97;94725.31;5097654;28;20231;-58
2022/05/29 09:09:51;;;;;;;1999.90;999.90;;;;;;;16.48;76.46;94723.03;5097154;28;20228;-62
2022/05/29 09:12:23;;;;;;;1999.90;999.90;;;;;;;16.09;77.88;94735.63;5097636;28;20259;-62
2022/05/29 09:14:59;;;;;;;1999.90;999.90;;;;;;;17.64;70.66;94735.28;5097494;28;20187;-62
2022/05/29 09:17:31;;;;;;;1999.90;999.90;;;;;;;17.77;66.34;94738.63;5096855;28;20290;-63
2022/05/29 09:20:02;;;;;;;1999.90;999.90;;;;;;;18.48;63.44;94736.78;5097324;28;20183;-62
2022/05/29 09:22:47;;;;;;;1999.90;999.90;;;;;;;17.98;61.99;94737.59;5097217;28;20255;-63
2022/05/29 09:25:17;;;;;;;1999.90;999.90;;;;;;;17.82;64.81;94726.94;5097444;28;20219;-58
2022/05/29 09:27:47;;;;;;;1999.90;999.90;;;;;;;17.99;68.65;94719.81;5096476;28;20202;-64
2022/05/29 09:30:13;;;;;;;1999.90;999.90;;;;;;;16.97;70.34;94720.94;5114722;28;20190;-73
2022/05/29 09:32:48;;;;;;;1999.90;999.90;;;;;;;17.87;68.91;94715.25;5096616;28;20191;-65
2022/05/29 09:35:40;;;;;;;1999.90;999.90;;;;;;;16.86;70.18;94715.13;5114714;28;20214;-64
2022/05/29 09:38:24;;;;;;;1999.90;999.90;;;;;;;17.83;69.71;94720.16;5097072;28;20542;-65
2022/05/29 09:40:54;;;;;;;1999.90;999.90;;;;;;;17.61;69.13;94719.63;5096519;28;20183;-69
2022/05/29 09:43:23;;;;;;;1999.90;999.90;;;;;;;18.62;66.47;94722.25;5096496;28;20229;-58
2022/05/29 09:45:50;;;;;;;1999.90;999.90;;;;;;;18.07;63.80;94729.28;5096740;28;20219;-59
2022/05/29 09:51:37;;;;;;;1999.90;999.90;;;;;;;19.92;62.27;94710.59;5114732;28;20186;-59
2022/05/29 09:54:05;;;;;;;1999.90;999.90;;;;;;;19.06;60.37;94725.91;5096803;28;20199;-59
2022/05/29 09:56:34;;;;;;;1999.90;999.90;;;;;;;19.08;58.46;94720.66;5096138;28;20219;-59
2022/05/29 09:59:16;;;;;;;1999.90;999.90;;;;;;;19.71;58.71;94719.31;5096139;28;20187;-59
2022/05/29 10:01:46;;;;;;;1999.90;999.90;;;;;;;19.87;57.89;94704.97;5096671;28;20194;-59
2022/05/29 10:04:29;;;;;;;1999.90;999.90;;;;;;;19.21;58.05;94715.63;5113974;28;20237;-64
2022/05/29 10:06:58;;;;;;;1999.90;999.90;;;;;;;20.34;56.42;94705.47;5096633;28;20180;-64
2022/05/29 10:09:26;;;;;;;1999.90;999.90;;;;;;;20.38;53.70;94719.91;5096590;28;20183;-63
2022/05/29 10:11:59;;;;;;;1999.90;999.90;;;;;;;19.80;55.21;94717.19;5096211;28;20184;-64
2022/05/29 10:14:54;;;;;;;1999.90;999.90;;;;;;;19.40;55.33;94720.56;5096269;28;20184;-63
2022/05/29 10:17:28;;;;;;;1999.90;999.90;;;;;;;19.80;51.99;94700.56;5079252;28;20211;-63
2022/05/29 10:19:54;;;;;;;1999.90;999.90;;;;;;;19.98;50.69;94700.34;5096164;28;20183;-59
2022/05/29 10:22:41;;;;;;;1999.90;999.90;;;;;;;19.26;53.02;94695.59;5096066;28;20182;-61
2022/05/29 10:25:21;;;;;;;1999.90;999.90;;;;;;;19.29;54.79;94683.56;5114179;28;20209;-60
2022/05/29 10:27:48;;;;;;;1999.90;999.90;;;;;;;18.50;56.81;94695.59;5096364;28;20199;-59
2022/05/29 10:30:28;;;;;;;1999.90;999.90;;;;;;;17.37;61.05;94688.38;5096212;28;20187;-60
2022/05/29 10:33:03;;;;;;;1999.90;999.90;;;;;;;17.14;64.04;94680.75;5095689;28;20249;-62
2022/05/29 10:35:32;;;;;;;1999.90;999.90;;;;;;;17.07;66.28;94683.81;5096019;28;20183;-60
2022/05/29 10:38:13;;;;;;;1999.90;999.90;;;;;;;17.93;64.16;94674.69;5096360;28;20214;-61
2022/05/29 10:40:41;;;;;;;1999.90;999.90;;;;;;;18.22;61.62;94672.09;5099464;28;20190;-63
2022/05/29 10:43:06;;;;;;;1999.90;999.90;;;;;;;18.47;61.07;94674.41;5117365;28;20195;-63
2022/05/29 10:45:44;;;;;;;1999.90;999.90;;;;;;;18.93;60.03;94672.81;5099309;28;20260;-63
2022/05/29 10:48:39;;;;;;;1999.90;999.90;;;;;;;18.42;59.46;94675.81;5099186;28;20209;-66
2022/05/29 10:51:21;;;;;;;1999.90;999.90;;;;;;;16.97;68.05;94674.78;5098828;28;20200;-64
2022/05/29 10:54:17;;;;;;;1999.90;999.90;;;;;;;16.63;71.15;94677.09;5117126;28;20187;-63
2022/05/29 10:56:55;;;;;;;1999.90;999.90;;;;;;;16.72;72.58;94671.59;5099856;28;20194;-59
2022/05/29 10:59:42;;;;;;;1999.90;999.90;;;;;;;16.37;73.92;94668.34;5099636;28;20259;-66
2022/05/29 11:05:30;;;;;;;1999.90;999.90;;;;;;;16.41;76.40;94674.47;5082392;28;20236;-66
2022/05/29 11:08:20;;;;;;;1999.90;999.90;;;;;;;15.94;77.73;94674.84;5098934;28;20215;-66
2022/05/29 11:11:16;;;;;;;1999.90;999.90;;;;;;;16.11;80.33;94678.84;5099090;28;20195;-65
2022/05/29 11:13:50;;;;;;;1999.90;999.90;;;;;;;15.91;86.86;94686.75;5098634;28;20187;-58
2022/05/29 11:16:39;;;;;;;1999.90;999.90;;;;;;;15.63;99.57;94687.88;5099638;28;20184;-59
2022/05/29 11:19:32;;;;;;;1999.90;999.90;;;;;;;14.89;100.00;94676.13;5099384;28;20184;-67
2022/05/29 11:22:14;;;;;;;1999.90;999.90;;;;;;;14.30;100.00;94670.00;5098712;28;20187;-66
2022/05/29 11:24:42;;;;;;;1999.90;999.90;;;;;;;13.98;100.00;94660.06;5099224;28;20305;-69
2022/05/29 11:27:40;;;;;;;1999.90;999.90;;;;;;;13.46;100.00;94659.81;5098696;28;20180;-71
2022/05/29 11:30:08;;;;;;;1999.90;999.90;;;;;;;12.79;100.00;94647.31;5094643;28;20351;-80
2022/05/29 11:32:46;;;;;;;1999.90;999.90;;;;;;;12.20;100.00;94644.28;5098750;28;20224;-63
2022/05/29 11:35:24;;;;;;;1999.90;999.90;;;;;;;11.69;100.00;94632.28;5098286;28;20258;-62
2022/05/29 11:37:50;;;;;;;1999.90;999.90;;;;;;;11.21;100.00;94645.13;5098522;28;20180;-63
2022/05/29 11:40:37;;;;;;;1999.90;999.90;;;;;;;11.11;100.00;94670.75;5098375;28;20187;-65
2022/05/29 11:43:02;;;;;;;1999.90;999.90;;;;;;;10.77;100.00;94667.56;5098548;28;20183;-65